createdAt,value
2019-05-03T00:02:08.128Z,8.63
2019-05-03T00:04:38.273Z,8.66
2019-05-03T00:07:07.232Z,9.01
2019-05-03T00:09:36.202Z,9.12
2019-05-03T00:12:05.492Z,9.08
2019-05-03T00:14:35.412Z,8.99
2019-05-03T00:17:04.371Z,8.99
2019-05-03T00:19:33.390Z,8.80
2019-05-03T00:22:02.352Z,8.67
2019-05-03T00:24:32.052Z,8.57
2019-05-03T00:27:01.986Z,8.68
2019-05-03T00:29:32.529Z,8.68
2019-05-03T00:32:02.050Z,8.43
2019-05-03T00:34:32.674Z,8.27
2019-05-03T00:37:03.176Z,8.23
2019-05-03T00:39:52.390Z,8.09
2019-05-03T00:42:22.493Z,8.19
2019-05-03T00:44:51.732Z,8.04
2019-05-03T00:47:22.160Z,7.93
2019-05-03T00:49:51.841Z,8.06
2019-05-03T00:52:22.350Z,8.14
2019-05-03T00:54:52.863Z,8.00
2019-05-03T00:57:22.715Z,7.86
2019-05-03T00:59:52.836Z,7.81
2019-05-03T01:02:22.425Z,8.01
2019-05-03T01:04:51.805Z,8.09
2019-05-03T01:07:22.271Z,8.16
2019-05-03T01:09:51.821Z,8.29
2019-05-03T01:12:21.930Z,8.35
2019-05-03T01:14:52.650Z,8.35
2019-05-03T01:17:22.451Z,8.24
2019-05-03T01:19:52.141Z,8.39
2019-05-03T01:22:22.602Z,8.11
2019-05-03T01:24:51.947Z,8.09
2019-05-03T01:27:22.023Z,8.18
2019-05-03T01:29:51.947Z,8.12
2019-05-03T01:32:22.313Z,8.43
2019-05-03T01:34:52.348Z,8.65
2019-05-03T01:37:22.706Z,8.48
2019-05-03T01:39:52.607Z,8.57
2019-05-03T01:42:22.616Z,8.50
2019-05-03T01:44:52.296Z,8.36
2019-05-03T01:47:22.990Z,8.14
2019-05-03T01:49:53.478Z,8.23
2019-05-03T01:52:23.991Z,8.22
2019-05-03T01:54:52.926Z,8.22
2019-05-03T01:57:22.127Z,8.14
2019-05-03T01:59:52.082Z,8.36
2019-05-03T02:02:23.132Z,8.35
2019-05-03T02:05:11.975Z,8.50
2019-05-03T02:07:42.307Z,8.56
2019-05-03T02:10:11.887Z,8.45
2019-05-03T02:12:41.716Z,8.38
2019-05-03T02:15:11.892Z,8.48
2019-05-03T02:17:42.662Z,8.41
2019-05-03T02:20:12.644Z,8.30
2019-05-03T02:22:42.756Z,8.22
2019-05-03T02:25:12.527Z,8.17
2019-05-03T02:27:42.240Z,7.97
2019-05-03T02:30:14.307Z,7.70
2019-05-03T02:32:43.863Z,7.90
2019-05-03T02:35:14.148Z,7.85
2019-05-03T02:37:46.586Z,7.59
2019-05-03T02:40:15.730Z,7.59
2019-05-03T02:42:46.540Z,7.47
2019-05-03T02:45:26.570Z,7.44
2019-05-03T02:48:05.848Z,7.52
2019-05-03T02:50:36.058Z,7.51
2019-05-03T02:53:05.737Z,7.31
2019-05-03T02:55:36.421Z,7.37
2019-05-03T02:58:05.816Z,7.47
2019-05-03T03:00:57.527Z,7.45
2019-05-03T03:03:27.985Z,7.53
2019-05-03T03:05:58.402Z,7.43
2019-05-03T03:08:33.588Z,7.53
2019-05-03T03:11:08.269Z,7.44
2019-05-03T03:13:39.058Z,7.49
2019-05-03T03:16:10.514Z,7.69
2019-05-03T03:18:40.957Z,7.79
2019-05-03T03:21:15.742Z,7.76
2019-05-03T03:23:46.064Z,7.81
2019-05-03T03:26:33.279Z,7.66
2019-05-03T03:28:51.673Z,7.82
2019-05-03T03:31:29.691Z,7.78
2019-05-03T03:34:00.577Z,7.85
2019-05-03T03:36:48.562Z,7.94
2019-05-03T03:39:01.095Z,8.06
2019-05-03T03:41:31.550Z,8.22
2019-05-03T03:44:05.640Z,8.20
2019-05-03T03:46:35.818Z,8.12
2019-05-03T03:49:07.031Z,8.14
2019-05-03T03:51:38.891Z,8.18
2019-05-03T03:54:09.353Z,8.29
2019-05-03T03:56:54.746Z,8.35
2019-05-03T03:59:11.244Z,8.40
2019-05-03T04:01:40.312Z,8.45
2019-05-03T04:04:09.451Z,8.47
2019-05-03T04:06:41.374Z,8.61
2019-05-03T04:09:10.474Z,8.47
2019-05-03T04:11:39.533Z,8.51
2019-05-03T04:14:10.774Z,8.71
2019-05-03T04:16:45.484Z,8.88
2019-05-03T04:19:17.373Z,8.90
2019-05-03T04:21:46.690Z,8.99
2019-05-03T04:24:16.439Z,8.89
2019-05-03T04:26:45.654Z,8.89
2019-05-03T04:29:16.079Z,8.94
2019-05-03T04:31:45.781Z,9.05
2019-05-03T04:34:16.267Z,8.87
2019-05-03T04:36:46.195Z,8.94
2019-05-03T04:39:19.665Z,9.02
2019-05-03T04:41:45.971Z,8.98
2019-05-03T04:44:15.544Z,9.04
2019-05-03T04:46:46.463Z,9.21
2019-05-03T04:49:15.241Z,9.40
2019-05-03T04:51:46.526Z,9.57
2019-05-03T04:54:31.407Z,9.71
2019-05-03T04:57:00.298Z,9.84
2019-05-03T04:59:29.306Z,9.88
2019-05-03T05:01:58.274Z,9.89
2019-05-03T05:04:27.173Z,9.91
2019-05-03T05:06:56.032Z,9.94
2019-05-03T05:09:25.922Z,10.20
2019-05-03T05:11:55.073Z,10.24
2019-05-03T05:14:25.823Z,10.17
2019-05-03T05:16:55.717Z,10.18
2019-05-03T05:19:41.753Z,10.39
2019-05-03T05:22:15.627Z,10.51
2019-05-03T05:24:45.041Z,10.64
2019-05-03T05:27:22.133Z,10.89
2019-05-03T05:29:51.570Z,11.02
2019-05-03T05:32:20.432Z,11.26
2019-05-03T05:34:49.493Z,11.47
2019-05-03T05:37:18.491Z,11.55
2019-05-03T05:39:47.333Z,11.55
2019-05-03T05:42:16.291Z,11.66
2019-05-03T05:44:45.501Z,11.68
2019-05-03T05:47:16.153Z,11.86
2019-05-03T05:49:46.652Z,11.81
2019-05-03T05:52:15.626Z,11.83
2019-05-03T05:54:46.132Z,11.82
2019-05-03T05:57:32.251Z,11.81
2019-05-03T06:00:20.572Z,11.85
2019-05-03T06:02:49.493Z,11.89
2019-05-03T06:05:18.332Z,11.91
2019-05-03T06:07:48.811Z,11.93
2019-05-03T06:10:36.752Z,12.02
2019-05-03T06:13:15.075Z,12.03
2019-05-03T06:15:54.857Z,12.05
2019-05-03T06:18:28.151Z,12.02
2019-05-03T06:21:01.854Z,12.04
2019-05-03T06:23:38.252Z,11.98
2019-05-03T06:26:08.772Z,12.02
2019-05-03T06:28:37.651Z,12.04
2019-05-03T06:31:08.111Z,12.21
2019-05-03T06:33:37.053Z,12.25
2019-05-03T06:36:06.032Z,12.17
2019-05-03T06:38:34.911Z,12.10
2019-05-03T06:41:04.685Z,12.10
2019-05-03T06:43:34.788Z,11.98
2019-05-03T06:46:05.342Z,12.07
2019-05-03T06:48:35.179Z,11.99
2019-05-03T06:51:08.811Z,12.15
2019-05-03T06:53:35.040Z,12.37
2019-05-03T06:56:04.673Z,12.64
2019-05-03T06:58:36.263Z,12.84
2019-05-03T07:01:22.140Z,12.90
2019-05-03T07:03:55.812Z,12.93
2019-05-03T07:06:34.507Z,12.78
2019-05-03T07:08:58.478Z,12.69
2019-05-03T07:11:27.354Z,12.53
2019-05-03T07:13:56.353Z,12.25
2019-05-03T07:16:25.532Z,12.17
2019-05-03T07:18:58.120Z,12.52
2019-05-03T07:21:25.253Z,12.90
2019-05-03T07:23:55.138Z,12.98
2019-05-03T07:26:25.439Z,12.91
2019-05-03T07:28:54.737Z,12.85
2019-05-03T07:31:25.557Z,12.67
2019-05-03T07:33:55.033Z,12.27
2019-05-03T07:36:28.072Z,11.75
2019-05-03T07:38:55.566Z,11.66
2019-05-03T07:41:27.133Z,11.44
2019-05-03T07:43:55.294Z,11.31
2019-05-03T07:46:24.747Z,11.22
2019-05-03T07:48:54.803Z,11.23
2019-05-03T07:51:24.868Z,11.12
2019-05-03T07:53:55.554Z,11.11
2019-05-03T07:56:29.153Z,10.91
2019-05-03T07:59:02.783Z,10.86
2019-05-03T08:01:30.380Z,10.79
2019-05-03T08:03:59.412Z,10.54
2019-05-03T08:06:28.290Z,10.45
2019-05-03T08:08:57.252Z,10.42
2019-05-03T08:11:26.140Z,10.29
2019-05-03T08:13:55.165Z,10.07
2019-05-03T08:16:25.154Z,9.89
2019-05-03T08:18:55.861Z,9.78
2019-05-03T08:21:25.344Z,9.74
2019-05-03T08:23:55.725Z,9.60
2019-05-03T08:26:25.755Z,9.54
2019-05-03T08:28:54.878Z,9.57
2019-05-03T08:31:35.398Z,9.64
2019-05-03T08:34:06.271Z,9.58
2019-05-03T08:36:36.872Z,9.63
2019-05-03T08:39:06.977Z,9.71
2019-05-03T08:41:37.411Z,9.76
2019-05-03T08:44:06.309Z,9.74
2019-05-03T08:46:35.632Z,9.47
2019-05-03T08:49:05.158Z,9.55
2019-05-03T08:51:35.246Z,9.61
2019-05-03T08:54:04.771Z,9.49
2019-05-03T08:56:34.891Z,9.30
2019-05-03T08:59:04.663Z,9.28
2019-05-03T09:01:36.540Z,9.30
2019-05-03T09:04:05.038Z,9.25
2019-05-03T09:06:35.462Z,9.26
2019-05-03T09:09:07.149Z,9.30
2019-05-03T09:11:45.409Z,9.26
2019-05-03T09:14:15.842Z,9.22
2019-05-03T09:16:44.859Z,9.06
2019-05-03T09:19:14.652Z,8.93
2019-05-03T09:21:45.391Z,9.04
2019-05-03T09:24:15.205Z,9.18
2019-05-03T09:26:44.909Z,9.23
2019-05-03T09:29:14.784Z,9.09
2019-05-03T09:31:44.677Z,8.86
2019-05-03T09:34:14.778Z,8.99
2019-05-03T09:36:44.824Z,8.94
2019-05-03T09:39:14.919Z,9.03
2019-05-03T09:41:45.074Z,9.05
2019-05-03T09:44:15.095Z,8.69
2019-05-03T09:46:44.677Z,8.77
2019-05-03T09:49:16.411Z,8.70
2019-05-03T09:51:44.502Z,8.82
2019-05-03T09:54:26.910Z,8.85
2019-05-03T09:56:59.433Z,8.86
2019-05-03T09:59:29.092Z,8.90
2019-05-03T10:01:58.630Z,8.77
2019-05-03T10:04:27.512Z,8.77
2019-05-03T10:06:56.432Z,8.75
2019-05-03T10:09:26.317Z,8.77
2019-05-03T10:11:55.422Z,8.82
2019-05-03T10:14:24.390Z,8.93
2019-05-03T10:16:57.517Z,8.95
2019-05-03T10:19:36.770Z,9.16
2019-05-03T10:21:57.054Z,9.17
2019-05-03T10:24:26.052Z,9.29
2019-05-03T10:26:55.269Z,9.33
2019-05-03T10:29:25.087Z,9.33
2019-05-03T10:31:58.511Z,9.45
2019-05-03T10:34:27.392Z,9.57
2019-05-03T10:36:56.352Z,10.42
2019-05-03T10:39:26.273Z,10.91
2019-05-03T10:41:55.351Z,10.54
2019-05-03T10:44:24.683Z,10.80
2019-05-03T10:46:55.762Z,10.57
2019-05-03T10:49:24.619Z,10.31
2019-05-03T10:51:55.151Z,10.10
2019-05-03T10:54:24.082Z,9.96
2019-05-03T10:56:55.870Z,9.88
2019-05-03T10:59:25.032Z,9.73
2019-05-03T11:01:55.671Z,9.74
2019-05-03T11:04:24.632Z,9.80
2019-05-03T11:06:55.106Z,9.77
2019-05-03T11:09:25.849Z,9.74
2019-05-03T11:11:55.665Z,9.85
2019-05-03T11:14:25.420Z,9.98
2019-05-03T11:16:55.413Z,10.06
2019-05-03T11:19:25.430Z,10.18
2019-05-03T11:21:54.874Z,10.30
2019-05-03T11:24:27.270Z,10.04
2019-05-03T11:26:56.234Z,9.94
2019-05-03T11:29:25.191Z,9.71
2019-05-03T11:32:09.594Z,9.72
2019-05-03T11:34:49.313Z,9.73
2019-05-03T11:37:28.753Z,9.68
2019-05-03T11:39:57.824Z,9.56
2019-05-03T11:42:26.759Z,9.46
2019-05-03T11:44:55.771Z,9.40
2019-05-03T11:47:27.164Z,9.21
2019-05-03T11:49:55.360Z,9.06
2019-05-03T11:52:25.838Z,9.11
2019-05-03T11:54:55.361Z,9.31
2019-05-03T11:57:26.606Z,9.40
2019-05-03T11:59:55.932Z,9.54
2019-05-03T12:02:29.224Z,9.55
2019-05-03T12:04:59.752Z,9.64
2019-05-03T12:07:39.466Z,9.96
2019-05-03T12:10:16.773Z,9.66
2019-05-03T12:12:38.572Z,9.92
2019-05-03T12:15:08.292Z,10.02
2019-05-03T12:17:51.813Z,10.10
2019-05-03T12:20:14.327Z,10.29
2019-05-03T12:22:44.388Z,10.20
2019-05-03T12:25:16.456Z,10.12
2019-05-03T12:27:44.652Z,10.08
2019-05-03T12:30:15.347Z,10.05
2019-05-03T12:32:44.251Z,10.31
2019-05-03T12:35:15.372Z,10.51
2019-05-03T12:37:43.991Z,10.39
2019-05-03T12:40:14.937Z,10.47
2019-05-03T12:42:45.422Z,10.43
2019-05-03T12:45:15.269Z,10.46
2019-05-03T12:47:45.307Z,10.50
2019-05-03T12:50:15.603Z,10.82
2019-05-03T12:52:50.238Z,11.01
2019-05-03T12:55:15.594Z,10.90
2019-05-03T12:57:45.751Z,10.81
2019-05-03T13:00:19.861Z,10.83
2019-05-03T13:02:52.160Z,11.04
2019-05-03T13:05:21.091Z,11.45
2019-05-03T13:08:07.760Z,11.57
2019-05-03T13:10:36.633Z,10.81
2019-05-03T13:13:05.552Z,11.40
2019-05-03T13:15:35.230Z,11.90
2019-05-03T13:18:04.959Z,12.03
2019-05-03T13:20:36.050Z,11.32
2019-05-03T13:23:05.470Z,11.39
2019-05-03T13:25:35.603Z,11.78
2019-05-03T13:28:05.509Z,11.73
2019-05-03T13:30:34.695Z,12.02
2019-05-03T13:33:05.619Z,12.20
2019-05-03T13:35:35.201Z,12.09
2019-05-03T13:38:04.291Z,12.12
2019-05-03T13:40:33.171Z,12.02
2019-05-03T13:43:04.515Z,12.03
2019-05-03T13:45:32.719Z,11.74
2019-05-03T13:48:01.632Z,11.91
2019-05-03T13:50:30.612Z,11.61
2019-05-03T13:52:59.562Z,11.74
2019-05-03T13:55:28.574Z,11.68
2019-05-03T13:57:57.432Z,12.29
2019-05-03T14:00:27.072Z,12.57
2019-05-03T14:02:56.408Z,13.22
2019-05-03T14:05:25.392Z,13.40
2019-05-03T14:07:56.197Z,13.19
2019-05-03T14:10:25.176Z,13.06
2019-05-03T14:12:54.859Z,12.73
2019-05-03T14:15:25.526Z,13.48
2019-05-03T14:17:54.804Z,13.01
2019-05-03T14:20:42.153Z,13.01
2019-05-03T14:23:11.291Z,13.49
2019-05-03T14:25:40.253Z,14.14
2019-05-03T14:28:09.292Z,14.84
2019-05-03T14:30:38.172Z,15.08
2019-05-03T14:33:07.132Z,14.69
2019-05-03T14:35:36.192Z,14.76
2019-05-03T14:38:05.934Z,14.85
2019-05-03T14:40:34.990Z,15.24
2019-05-03T14:43:04.834Z,15.22
2019-05-03T14:45:34.935Z,14.23
2019-05-03T14:48:06.145Z,13.32
2019-05-03T14:50:35.267Z,13.39
2019-05-03T14:53:05.404Z,13.86
2019-05-03T14:55:45.471Z,13.46
2019-05-03T14:58:28.371Z,13.68
2019-05-03T15:01:01.557Z,13.46
2019-05-03T15:03:30.537Z,12.30
2019-05-03T15:05:59.585Z,11.96
2019-05-03T15:08:28.699Z,11.66
2019-05-03T15:10:57.658Z,11.91
2019-05-03T15:13:26.699Z,11.92
2019-05-03T15:15:55.658Z,11.38
2019-05-03T15:18:25.634Z,11.23
2019-05-03T15:20:55.166Z,11.36
2019-05-03T15:23:25.419Z,11.48
2019-05-03T15:25:54.758Z,11.47
2019-05-03T15:28:25.024Z,11.42
2019-05-03T15:30:55.323Z,11.37
2019-05-03T15:33:24.458Z,11.29
2019-05-03T15:35:55.291Z,11.30
2019-05-03T15:38:24.459Z,11.29
2019-05-03T15:40:54.795Z,11.31
2019-05-03T15:43:28.587Z,11.35
2019-05-03T15:46:14.703Z,11.23
2019-05-03T15:48:45.862Z,11.34
2019-05-03T15:51:15.177Z,11.30
2019-05-03T15:53:44.482Z,11.17
2019-05-03T15:56:14.708Z,11.30
2019-05-03T15:58:46.676Z,11.40
2019-05-03T16:01:15.309Z,11.41
2019-05-03T16:03:44.896Z,11.33
2019-05-03T16:06:15.522Z,11.24
2019-05-03T16:08:44.779Z,11.20
2019-05-03T16:11:14.810Z,11.11
2019-05-03T16:13:45.206Z,11.15
2019-05-03T16:16:15.197Z,11.07
2019-05-03T16:18:44.949Z,11.16
2019-05-03T16:21:14.590Z,11.15
2019-05-03T16:23:46.272Z,11.24
2019-05-03T16:26:14.746Z,10.83
2019-05-03T16:28:46.463Z,10.97
2019-05-03T16:31:17.139Z,10.79
2019-05-03T16:33:46.179Z,10.77
2019-05-03T16:36:15.181Z,10.84
2019-05-03T16:38:44.963Z,10.89
2019-05-03T16:41:17.551Z,10.71
2019-05-03T16:43:45.587Z,10.46
2019-05-03T16:46:14.983Z,10.63
2019-05-03T16:48:44.856Z,10.24
2019-05-03T16:51:17.249Z,10.50
2019-05-03T16:53:46.524Z,10.31
2019-05-03T16:56:17.199Z,10.24
2019-05-03T16:58:46.426Z,10.07
2019-05-03T17:01:17.812Z,10.02
2019-05-03T17:03:47.780Z,10.15
2019-05-03T17:06:18.301Z,10.29
2019-05-03T17:08:52.099Z,10.38
2019-05-03T17:11:24.236Z,10.17
2019-05-03T17:13:55.376Z,10.49
2019-05-03T17:16:24.918Z,10.51
2019-05-03T17:18:55.194Z,10.30
2019-05-03T17:21:25.492Z,10.17
2019-05-03T17:23:54.707Z,10.14
2019-05-03T17:26:24.865Z,10.05
2019-05-03T17:28:55.397Z,9.96
2019-05-03T17:31:24.658Z,9.99
2019-05-03T17:33:56.606Z,10.04
2019-05-03T17:36:25.041Z,10.14
2019-05-03T17:38:55.858Z,10.08
2019-05-03T17:41:38.418Z,10.03
2019-05-03T17:44:09.138Z,9.92
2019-05-03T17:46:37.987Z,9.91
2019-05-03T17:49:07.058Z,9.95
2019-05-03T17:51:40.416Z,9.83
2019-05-03T17:54:10.945Z,9.92
2019-05-03T17:56:44.860Z,9.87
2019-05-03T17:59:15.387Z,9.95
2019-05-03T18:02:04.780Z,9.97
2019-05-03T18:04:35.245Z,9.93
2019-05-03T18:07:24.225Z,9.83
2019-05-03T18:09:55.370Z,9.99
2019-05-03T18:12:24.450Z,10.31
2019-05-03T18:14:55.337Z,10.58
2019-05-03T18:17:24.801Z,10.39
2019-05-03T18:19:55.351Z,10.00
2019-05-03T18:22:24.539Z,10.13
2019-05-03T18:24:54.630Z,10.02
2019-05-03T18:27:25.106Z,9.90
2019-05-03T18:29:55.446Z,9.69
2019-05-03T18:32:25.184Z,9.42
2019-05-03T18:34:54.685Z,9.47
2019-05-03T18:37:24.465Z,9.52
2019-05-03T18:39:54.649Z,9.46
2019-05-03T18:42:25.537Z,9.09
2019-05-03T18:45:02.100Z,9.22
2019-05-03T18:47:31.939Z,9.23
2019-05-03T18:50:01.147Z,9.39
2019-05-03T18:52:30.417Z,9.26
2019-05-03T18:54:59.657Z,9.18
2019-05-03T18:57:28.817Z,9.08
2019-05-03T18:59:58.099Z,9.17
2019-05-03T19:02:27.380Z,9.02
2019-05-03T19:04:56.537Z,8.91
2019-05-03T19:07:39.457Z,8.93
2019-05-03T19:10:10.462Z,8.83
2019-05-03T19:12:47.057Z,9.01
2019-05-03T19:15:16.658Z,8.91
2019-05-03T19:17:50.137Z,8.94
2019-05-03T19:20:19.939Z,8.84
2019-05-03T19:22:49.377Z,8.87
2019-05-03T19:25:18.658Z,8.85
2019-05-03T19:27:48.057Z,8.85
2019-05-03T19:30:18.137Z,8.90
2019-05-03T19:32:47.340Z,8.80
2019-05-03T19:35:16.817Z,8.65
2019-05-03T19:37:46.619Z,8.60
2019-05-03T19:40:16.938Z,8.46
2019-05-03T19:42:46.179Z,8.48
2019-05-03T19:45:15.577Z,8.58
2019-05-03T19:47:44.913Z,8.45
2019-05-03T19:50:15.686Z,8.40
2019-05-03T19:53:01.978Z,8.33
2019-05-03T19:55:31.066Z,8.32
2019-05-03T19:58:00.463Z,8.47
2019-05-03T20:00:37.378Z,8.53
2019-05-03T20:03:17.138Z,8.70
2019-05-03T20:05:50.738Z,8.68
2019-05-03T20:08:24.662Z,8.49
2019-05-03T20:10:55.542Z,8.51
2019-05-03T20:13:34.099Z,8.58
2019-05-03T20:15:55.650Z,8.33
2019-05-03T20:18:24.620Z,8.36
2019-05-03T20:20:55.333Z,8.25
2019-05-03T20:23:25.059Z,8.34
2019-05-03T20:25:54.615Z,8.16
2019-05-03T20:28:24.721Z,8.15
2019-05-03T20:30:54.536Z,8.16
2019-05-03T20:33:24.622Z,7.92
2019-05-03T20:35:56.177Z,8.07
2019-05-03T20:38:24.683Z,8.08
2019-05-03T20:40:57.271Z,8.09
2019-05-03T20:43:41.258Z,8.03
2019-05-03T20:46:11.746Z,8.10
2019-05-03T20:48:42.320Z,8.05
2019-05-03T20:51:11.315Z,7.89
2019-05-03T20:53:40.299Z,7.94
2019-05-03T20:56:09.378Z,7.69
2019-05-03T20:58:38.465Z,7.44
2019-05-03T21:01:07.418Z,7.17
2019-05-03T21:03:36.379Z,6.98
2019-05-03T21:06:05.458Z,6.80
2019-05-03T21:08:34.673Z,6.65
2019-05-03T21:11:05.397Z,6.56
2019-05-03T21:13:42.111Z,6.55
2019-05-03T21:16:14.782Z,6.57
2019-05-03T21:18:54.871Z,6.36
2019-05-03T21:21:28.165Z,6.37
2019-05-03T21:24:10.017Z,6.39
2019-05-03T21:26:39.070Z,6.36
2019-05-03T21:29:09.259Z,6.28
2019-05-03T21:31:38.250Z,6.18
2019-05-03T21:34:07.265Z,6.07
2019-05-03T21:36:36.257Z,5.99
2019-05-03T21:39:06.960Z,5.93
2019-05-03T21:41:37.969Z,5.76
2019-05-03T21:44:06.658Z,5.71
2019-05-03T21:46:44.983Z,5.73
2019-05-03T21:49:18.379Z,5.60
2019-05-03T21:51:47.432Z,5.51
2019-05-03T21:54:16.617Z,5.46
2019-05-03T21:56:45.657Z,5.31
2019-05-03T21:59:14.657Z,5.23
2019-05-03T22:01:45.593Z,5.25
2019-05-03T22:04:15.589Z,5.24
2019-05-03T22:06:44.901Z,5.34
2019-05-03T22:09:13.818Z,5.29
2019-05-03T22:11:44.555Z,5.40
2019-05-03T22:14:15.187Z,5.39
2019-05-03T22:16:58.066Z,5.27
2019-05-03T22:19:27.098Z,5.00
2019-05-03T22:21:57.665Z,4.85
2019-05-03T22:24:31.379Z,4.83
2019-05-03T22:27:01.120Z,4.92
2019-05-03T22:29:30.181Z,4.93
2019-05-03T22:31:59.257Z,4.82
2019-05-03T22:34:28.297Z,4.68
2019-05-03T22:36:57.338Z,4.77
2019-05-03T22:39:26.459Z,4.88
2019-05-03T22:41:55.500Z,4.83
2019-05-03T22:44:25.357Z,4.80
2019-05-03T22:46:55.129Z,4.60
2019-05-03T22:49:26.022Z,4.53
2019-05-03T22:51:55.338Z,4.55
2019-05-03T22:54:24.713Z,4.53
2019-05-03T22:56:55.559Z,4.55
2019-05-03T22:59:25.295Z,4.41
2019-05-03T23:01:54.873Z,4.41
2019-05-03T23:04:25.283Z,4.39
2019-05-03T23:06:55.463Z,4.42
2019-05-03T23:09:25.099Z,4.56
2019-05-03T23:11:55.285Z,4.58
2019-05-03T23:14:25.565Z,4.59
2019-05-03T23:16:54.859Z,4.29
2019-05-03T23:19:23.738Z,4.18
2019-05-03T23:21:57.105Z,3.96
2019-05-03T23:24:26.217Z,3.95
2019-05-03T23:26:55.258Z,4.01
2019-05-03T23:29:24.218Z,3.95
2019-05-03T23:31:53.337Z,4.03
2019-05-03T23:34:24.633Z,3.85
2019-05-03T23:36:54.799Z,3.86
2019-05-03T23:39:24.954Z,3.84
2019-05-03T23:41:55.749Z,3.78
2019-05-03T23:44:24.697Z,3.89
2019-05-03T23:47:01.697Z,3.72
2019-05-03T23:49:30.622Z,3.75
2019-05-03T23:52:01.098Z,3.82
2019-05-03T23:54:30.190Z,3.78
2019-05-03T23:56:59.298Z,3.84
2019-05-03T23:59:28.340Z,3.88
